createdAt,value
2023-04-25T00:01:05.965Z,8.00
2023-04-25T00:03:33.720Z,7.80
2023-04-25T00:06:03.604Z,8.30
2023-04-25T00:08:31.337Z,9.30
2023-04-25T00:10:58.714Z,9.00
2023-04-25T00:13:26.579Z,8.90
2023-04-25T00:15:54.302Z,9.90
2023-04-25T00:18:21.598Z,10.50
2023-04-25T00:20:48.495Z,13.80
2023-04-25T00:23:21.314Z,13.60
2023-04-25T00:25:49.516Z,14.00
2023-04-25T00:28:16.395Z,14.80
2023-04-25T00:30:43.573Z,15.20
2023-04-25T00:33:10.984Z,15.20
2023-04-25T00:35:37.967Z,15.60
2023-04-25T00:38:04.882Z,15.40
2023-04-25T00:40:31.953Z,14.60
2023-04-25T00:42:58.911Z,15.00
2023-04-25T00:45:28.787Z,14.60
2023-04-25T00:47:55.966Z,14.10
2023-04-25T00:50:23.034Z,14.40
2023-04-25T00:52:50.066Z,13.70
2023-04-25T00:55:17.017Z,13.70
2023-04-25T00:57:44.050Z,14.30
2023-04-25T01:00:12.072Z,14.60
2023-04-25T01:02:39.127Z,14.00
2023-04-25T01:05:06.291Z,13.40
2023-04-25T01:07:33.206Z,13.40
2023-04-25T01:10:00.089Z,13.30
2023-04-25T01:12:27.059Z,10.70
2023-04-25T01:14:53.954Z,8.80
2023-04-25T01:17:21.010Z,8.90
2023-04-25T01:19:49.993Z,8.20
2023-04-25T01:22:17.917Z,8.40
2023-04-25T01:24:44.813Z,7.60
2023-04-25T01:27:12.017Z,7.70
2023-04-25T01:29:38.947Z,8.70
2023-04-25T01:33:48.632Z,8.20
2023-04-25T01:36:15.900Z,8.40
2023-04-25T01:38:43.271Z,8.70
2023-04-25T01:41:10.139Z,8.10
2023-04-25T01:46:26.420Z,7.80
2023-04-25T01:48:53.366Z,7.60
2023-04-25T01:51:20.295Z,7.90
2023-04-25T01:53:47.327Z,8.00
2023-04-25T01:56:14.861Z,8.80
2023-04-25T01:58:42.054Z,8.40
2023-04-25T02:01:21.058Z,7.80
2023-04-25T02:03:55.851Z,7.20
2023-04-25T02:06:32.132Z,7.00
2023-04-25T02:08:59.318Z,7.40
2023-04-25T02:11:26.390Z,8.80
2023-04-25T02:14:04.650Z,7.80
2023-04-25T02:16:52.571Z,7.70
2023-04-25T02:19:19.959Z,8.30
2023-04-25T02:21:47.678Z,7.90
2023-04-25T02:24:14.679Z,7.60
2023-04-25T02:26:41.637Z,7.60
2023-04-25T02:29:10.408Z,8.00
2023-04-25T02:31:37.296Z,7.10
2023-04-25T02:34:04.319Z,7.50
2023-04-25T02:36:33.312Z,7.50
2023-04-25T02:39:00.124Z,8.20
2023-04-25T02:41:27.788Z,7.90
2023-04-25T02:43:55.720Z,6.90
2023-04-25T02:46:32.303Z,6.60
2023-04-25T02:49:05.053Z,6.90
2023-04-25T02:51:32.096Z,7.10
2023-04-25T02:53:58.969Z,7.40
2023-04-25T02:56:27.385Z,7.60
2023-04-25T02:58:54.788Z,7.40
2023-04-25T03:01:22.170Z,8.40
2023-04-25T03:03:49.882Z,7.90
2023-04-25T03:06:17.150Z,8.50
2023-04-25T03:08:44.502Z,7.90
2023-04-25T03:11:11.766Z,9.70
2023-04-25T03:13:38.708Z,10.60
2023-04-25T03:16:06.494Z,11.20
2023-04-25T03:18:33.557Z,10.40
2023-04-25T03:21:00.632Z,9.90
2023-04-25T03:23:27.481Z,9.40
2023-04-25T03:25:54.777Z,10.00
2023-04-25T03:28:21.639Z,9.60
2023-04-25T03:30:48.614Z,10.30
2023-04-25T03:33:15.730Z,9.90
2023-04-25T03:35:43.714Z,10.10
2023-04-25T03:38:11.022Z,9.90
2023-04-25T03:40:40.203Z,7.80
2023-04-25T03:43:33.288Z,8.00
2023-04-25T03:46:04.289Z,7.00
2023-04-25T03:48:31.185Z,6.40
2023-04-25T03:50:59.259Z,5.90
2023-04-25T03:53:26.617Z,5.60
2023-04-25T03:58:47.596Z,4.10
2023-04-25T04:01:14.831Z,4.90
2023-04-25T04:03:42.445Z,5.30
2023-04-25T04:06:10.308Z,5.20
2023-04-25T04:08:40.166Z,5.50
2023-04-25T04:11:07.327Z,6.00
2023-04-25T04:13:34.464Z,5.00
2023-04-25T04:16:02.620Z,4.80
2023-04-25T04:18:29.627Z,5.10
2023-04-25T04:20:59.145Z,7.40
2023-04-25T04:23:29.130Z,8.50
2023-04-25T04:25:57.513Z,9.20
2023-04-25T04:28:37.472Z,8.50
2023-04-25T04:31:17.031Z,9.10
2023-04-25T04:36:54.055Z,9.40
2023-04-25T04:39:21.688Z,9.80
2023-04-25T04:41:59.364Z,9.50
2023-04-25T04:44:37.857Z,8.30
2023-04-25T04:47:26.938Z,8.00
2023-04-25T04:50:11.714Z,7.80
2023-04-25T04:53:03.228Z,8.00
2023-04-25T04:55:57.622Z,8.00
2023-04-25T04:58:45.809Z,7.20
2023-04-25T05:01:27.429Z,7.20
2023-04-25T05:04:14.367Z,6.00
2023-04-25T05:07:00.638Z,5.50
2023-04-25T05:09:49.823Z,4.50
2023-04-25T05:12:37.549Z,4.90
2023-04-25T05:15:22.892Z,5.00
2023-04-25T05:17:52.723Z,5.40
2023-04-25T05:20:26.229Z,4.40
2023-04-25T05:23:02.103Z,3.60
2023-04-25T05:25:42.139Z,3.80
2023-04-25T05:28:31.694Z,4.10
2023-04-25T05:31:11.083Z,4.90
2023-04-25T05:33:56.063Z,4.90
2023-04-25T05:36:25.307Z,4.60
2023-04-25T05:38:52.337Z,4.40
2023-04-25T05:41:22.164Z,3.50
2023-04-25T05:43:58.412Z,4.30
2023-04-25T05:49:26.670Z,4.60
2023-04-25T05:51:59.605Z,4.50
2023-04-25T05:54:46.777Z,5.00
2023-04-25T05:57:27.112Z,4.60
2023-04-25T05:59:55.901Z,4.30
2023-04-25T06:02:27.803Z,4.70
2023-04-25T06:04:55.113Z,6.80
2023-04-25T06:07:23.409Z,6.60
2023-04-25T06:09:50.564Z,5.40
2023-04-25T06:12:17.544Z,5.40
2023-04-25T06:14:44.912Z,4.70
2023-04-25T06:17:11.875Z,4.10
2023-04-25T06:19:40.072Z,4.80
2023-04-25T06:22:08.390Z,4.60
2023-04-25T06:24:36.612Z,5.10
2023-04-25T06:27:04.419Z,4.70
2023-04-25T06:29:31.378Z,4.90
2023-04-25T06:31:58.779Z,6.00
2023-04-25T06:34:25.947Z,5.10
2023-04-25T06:36:53.099Z,5.40
2023-04-25T06:39:21.392Z,5.60
2023-04-25T06:41:50.674Z,4.60
2023-04-25T06:44:37.712Z,4.40
2023-04-25T06:47:07.234Z,4.50
2023-04-25T06:49:34.197Z,4.50
2023-04-25T06:52:01.570Z,4.60
2023-04-25T06:54:30.654Z,4.80
2023-04-25T06:57:04.188Z,4.50
2023-04-25T06:59:33.932Z,3.80
2023-04-25T07:02:01.051Z,3.40
2023-04-25T07:04:29.490Z,4.20
2023-04-25T07:06:57.488Z,4.20
2023-04-25T07:09:34.995Z,4.00
2023-04-25T07:12:04.540Z,4.60
2023-04-25T07:14:31.539Z,5.00
2023-04-25T07:16:59.299Z,4.30
2023-04-25T07:19:27.938Z,3.80
2023-04-25T07:21:56.193Z,3.90
2023-04-25T07:24:23.191Z,4.40
2023-04-25T07:26:52.713Z,4.00
2023-04-25T07:29:33.028Z,4.40
2023-04-25T07:32:00.796Z,4.80
2023-04-25T07:34:27.857Z,4.60
2023-04-25T07:36:54.856Z,3.60
2023-04-25T07:39:24.232Z,5.10
2023-04-25T07:41:53.739Z,4.90
2023-04-25T07:44:24.550Z,4.50
2023-04-25T07:46:51.692Z,4.70
2023-04-25T07:49:18.667Z,4.70
2023-04-25T07:51:45.802Z,5.40
2023-04-25T07:54:15.482Z,4.50
2023-04-25T07:56:52.788Z,4.40
2023-04-25T07:59:21.587Z,4.00
2023-04-25T08:01:48.958Z,5.10
2023-04-25T08:04:16.395Z,4.20
2023-04-25T08:06:51.256Z,4.80
2023-04-25T08:09:22.384Z,4.90
2023-04-25T08:11:49.490Z,4.70
2023-04-25T08:14:17.845Z,5.20
2023-04-25T08:16:45.042Z,5.00
2023-04-25T08:19:12.556Z,4.40
2023-04-25T08:21:39.549Z,4.00
2023-04-25T08:24:09.709Z,3.80
2023-04-25T08:26:39.703Z,4.10
2023-04-25T08:29:07.383Z,4.20
2023-04-25T08:31:35.976Z,4.40
2023-04-25T08:34:03.666Z,4.40
2023-04-25T08:36:57.140Z,4.60
2023-04-25T08:39:49.261Z,4.10
2023-04-25T08:42:32.183Z,5.10
2023-04-25T08:44:59.249Z,4.50
2023-04-25T08:47:29.955Z,4.30
2023-04-25T08:49:57.875Z,4.10
2023-04-25T08:52:25.698Z,3.70
2023-04-25T08:54:53.231Z,4.50
2023-04-25T08:57:20.735Z,4.50
2023-04-25T08:59:48.166Z,4.50
2023-04-25T09:02:17.800Z,3.90
2023-04-25T09:04:46.914Z,3.30
2023-04-25T09:07:16.786Z,3.50
2023-04-25T09:09:43.790Z,3.60
2023-04-25T09:12:11.262Z,3.10
2023-04-25T09:14:38.075Z,3.10
2023-04-25T09:17:25.594Z,3.20
2023-04-25T09:19:55.045Z,3.30
2023-04-25T09:22:31.394Z,3.30
2023-04-25T09:24:58.651Z,3.00
2023-04-25T09:27:28.069Z,2.80
2023-04-25T09:30:30.794Z,3.10
2023-04-25T09:33:18.231Z,3.10
2023-04-25T09:35:53.968Z,3.20
2023-04-25T09:38:31.292Z,3.20
2023-04-25T09:41:10.585Z,2.90
2023-04-25T09:43:43.769Z,2.90
2023-04-25T09:46:12.414Z,3.70
2023-04-25T09:48:42.278Z,3.90
2023-04-25T09:51:14.939Z,3.90
2023-04-25T09:56:24.616Z,3.90
2023-04-25T09:58:51.507Z,7.40
2023-04-25T10:01:18.580Z,4.20
2023-04-25T10:03:53.959Z,3.80
2023-04-25T10:06:51.582Z,4.70
2023-04-25T10:09:19.642Z,5.10
2023-04-25T10:11:48.938Z,5.60
2023-04-25T10:14:15.809Z,5.00
2023-04-25T10:16:42.718Z,5.10
2023-04-25T10:19:11.097Z,3.80
2023-04-25T10:21:46.715Z,5.80
2023-04-25T10:24:13.639Z,5.70
2023-04-25T10:26:40.572Z,5.20
2023-04-25T10:29:07.486Z,5.60
2023-04-25T10:31:34.686Z,4.90
2023-04-25T10:34:02.586Z,5.30
2023-04-25T10:36:32.732Z,5.10
2023-04-25T10:39:01.604Z,5.10
2023-04-25T10:41:29.991Z,3.90
2023-04-25T10:44:02.080Z,3.80
2023-04-25T10:46:33.005Z,4.00
2023-04-25T10:49:01.243Z,4.30
2023-04-25T10:51:50.997Z,4.20
2023-04-25T10:54:21.424Z,4.20
2023-04-25T10:56:49.774Z,3.80
2023-04-25T10:59:17.751Z,3.90
2023-04-25T11:01:46.016Z,4.00
2023-04-25T11:04:37.313Z,4.60
2023-04-25T11:07:23.841Z,4.10
2023-04-25T11:09:51.175Z,4.40
2023-04-25T11:12:18.701Z,4.40
2023-04-25T11:14:45.583Z,4.20
2023-04-25T11:17:12.801Z,4.30
2023-04-25T11:19:39.901Z,4.90
2023-04-25T11:22:07.885Z,4.80
2023-04-25T11:24:35.929Z,3.60
2023-04-25T11:27:03.678Z,4.90
2023-04-25T11:29:31.742Z,4.70
2023-04-25T11:32:02.334Z,4.20
2023-04-25T11:34:31.910Z,4.40
2023-04-25T11:36:58.875Z,4.70
2023-04-25T11:39:26.064Z,3.60
2023-04-25T11:41:53.659Z,4.20
2023-04-25T11:44:20.708Z,4.10
2023-04-25T11:46:47.799Z,4.50
2023-04-25T11:49:15.326Z,4.70
2023-04-25T11:51:46.604Z,3.60
2023-04-25T11:54:13.638Z,4.00
2023-04-25T11:56:46.737Z,3.20
2023-04-25T11:59:14.188Z,3.30
2023-04-25T12:01:42.681Z,3.90
2023-04-25T12:04:23.860Z,4.20
2023-04-25T12:06:52.858Z,5.00
2023-04-25T12:09:33.547Z,4.90
2023-04-25T12:12:03.816Z,5.20
2023-04-25T12:14:33.067Z,4.80
2023-04-25T12:17:01.715Z,5.20
2023-04-25T12:19:35.664Z,4.30
2023-04-25T12:22:04.303Z,5.30
2023-04-25T12:24:36.944Z,6.00
2023-04-25T12:27:06.657Z,6.00
2023-04-25T12:29:48.628Z,5.80
2023-04-25T12:32:17.087Z,5.20
2023-04-25T12:34:44.050Z,5.60
2023-04-25T12:37:11.547Z,6.50
2023-04-25T12:39:38.628Z,7.00
2023-04-25T12:42:08.598Z,6.40
2023-04-25T12:44:36.720Z,4.50
2023-04-25T12:47:04.360Z,6.00
2023-04-25T12:49:31.590Z,5.50
2023-04-25T12:51:58.672Z,4.80
2023-04-25T12:54:26.684Z,5.70
2023-04-25T12:56:53.808Z,5.70
2023-04-25T12:59:21.646Z,5.90
2023-04-25T13:01:48.610Z,3.70
2023-04-25T13:04:16.327Z,6.40
2023-04-25T13:06:43.521Z,4.50
2023-04-25T13:11:37.547Z,6.00
2023-04-25T13:14:05.848Z,5.20
2023-04-25T13:16:32.755Z,6.20
2023-04-25T13:19:00.195Z,5.80
2023-04-25T13:21:28.066Z,6.00
2023-04-25T13:23:55.237Z,5.90
2023-04-25T13:26:22.388Z,5.70
2023-04-25T13:28:51.572Z,6.30
2023-04-25T13:31:18.480Z,6.60
2023-04-25T13:33:45.678Z,6.20
2023-04-25T13:36:12.614Z,6.20
2023-04-25T13:38:40.660Z,5.20
2023-04-25T13:41:08.397Z,5.10
2023-04-25T13:43:35.369Z,5.30
2023-04-25T13:46:02.409Z,3.80
2023-04-25T13:48:29.325Z,4.80
2023-04-25T13:50:56.202Z,5.00
2023-04-25T13:53:23.203Z,5.40
2023-04-25T13:55:50.208Z,4.60
2023-04-25T13:58:18.618Z,4.30
2023-04-25T14:03:51.423Z,4.20
2023-04-25T14:06:23.927Z,3.80
2023-04-25T14:08:51.948Z,3.50
2023-04-25T14:11:21.801Z,3.10
2023-04-25T14:13:50.593Z,2.70
2023-04-25T14:16:18.112Z,2.90
2023-04-25T14:18:45.326Z,2.90
2023-04-25T14:21:12.766Z,2.40
2023-04-25T14:23:39.673Z,2.70
2023-04-25T14:26:06.872Z,2.60
2023-04-25T14:28:33.806Z,2.70
2023-04-25T14:31:01.967Z,2.90
2023-04-25T14:33:28.913Z,2.80
2023-04-25T14:35:56.091Z,2.90
2023-04-25T14:38:24.530Z,2.10
2023-04-25T14:40:51.709Z,3.20
2023-04-25T14:43:18.849Z,2.50
2023-04-25T14:45:45.902Z,2.30
2023-04-25T14:48:12.845Z,2.40
2023-04-25T14:50:40.362Z,2.30
2023-04-25T14:53:07.417Z,2.90
2023-04-25T14:55:36.466Z,2.50
2023-04-25T14:58:03.399Z,2.50
2023-04-25T15:00:32.871Z,2.40
2023-04-25T15:03:00.598Z,2.70
2023-04-25T15:05:28.438Z,2.50
2023-04-25T15:07:56.730Z,3.10
2023-04-25T15:10:24.873Z,3.30
2023-04-25T15:12:51.762Z,3.20
2023-04-25T15:15:25.988Z,3.70
2023-04-25T15:17:59.261Z,3.80
2023-04-25T15:20:28.804Z,4.30
2023-04-25T15:22:56.391Z,5.10
2023-04-25T15:25:23.394Z,3.20
2023-04-25T15:27:50.574Z,4.00
2023-04-25T15:30:20.457Z,6.80
2023-04-25T15:32:48.085Z,4.40
2023-04-25T15:35:16.099Z,4.00
2023-04-25T15:37:43.320Z,3.80
2023-04-25T15:40:13.751Z,4.10
2023-04-25T15:42:44.759Z,3.90
2023-04-25T15:45:12.366Z,3.60
2023-04-25T15:47:39.584Z,3.20
2023-04-25T15:50:09.650Z,3.60
2023-04-25T15:52:37.001Z,4.10
2023-04-25T16:02:44.883Z,4.80
2023-04-25T16:05:13.229Z,4.70
2023-04-25T16:07:41.114Z,4.10
2023-04-25T16:10:09.572Z,3.90
2023-04-25T16:12:37.285Z,4.10
2023-04-25T16:15:05.006Z,2.70
2023-04-25T16:17:33.561Z,3.00
2023-04-25T16:20:03.590Z,3.00
2023-04-25T16:22:30.740Z,3.70
2023-04-25T16:24:57.745Z,3.20
2023-04-25T16:27:25.016Z,4.00
2023-04-25T16:29:52.113Z,4.30
2023-04-25T16:32:19.112Z,6.00
2023-04-25T16:34:46.153Z,6.80
2023-04-25T16:37:13.636Z,7.50
2023-04-25T16:39:41.090Z,8.60
2023-04-25T16:42:08.135Z,8.20
2023-04-25T16:44:37.468Z,5.70
2023-04-25T16:47:06.103Z,4.90
2023-04-25T16:49:33.442Z,4.50
2023-04-25T16:52:00.361Z,4.90
2023-04-25T16:54:27.751Z,4.30
2023-04-25T16:56:54.729Z,4.00
2023-04-25T16:59:21.710Z,3.30
2023-04-25T17:01:49.019Z,4.00
2023-04-25T17:04:16.403Z,3.90
2023-04-25T17:06:43.448Z,4.50
2023-04-25T17:09:10.677Z,3.20
2023-04-25T17:11:37.700Z,4.20
2023-04-25T17:14:04.684Z,2.90
2023-04-25T17:16:36.660Z,3.70
2023-04-25T17:19:07.744Z,1.90
2023-04-25T17:21:34.697Z,1.30
2023-04-25T17:24:01.687Z,1.00
2023-04-25T17:26:28.759Z,1.10
2023-04-25T17:28:55.773Z,0.90
2023-04-25T17:31:24.174Z,0.50
2023-04-25T17:33:51.744Z,0.50
2023-04-25T17:36:18.658Z,0.60
2023-04-25T17:38:45.922Z,0.90
2023-04-25T17:41:15.239Z,1.20
2023-04-25T17:43:44.756Z,1.00
2023-04-25T17:46:11.782Z,0.80
2023-04-25T17:48:38.764Z,0.80
2023-04-25T17:51:07.023Z,1.40
2023-04-25T17:53:33.973Z,0.80
2023-04-25T17:56:01.010Z,1.80
2023-04-25T17:58:28.149Z,1.40
2023-04-25T18:00:58.496Z,1.20
2023-04-25T18:03:26.176Z,1.20
2023-04-25T18:05:53.188Z,1.90
2023-04-25T18:08:22.202Z,1.70
2023-04-25T18:10:49.250Z,0.90
2023-04-25T18:13:17.480Z,0.70
2023-04-25T18:15:44.796Z,0.90
2023-04-25T18:18:19.850Z,1.00
2023-04-25T18:20:47.424Z,1.30
2023-04-25T18:23:14.372Z,1.50
2023-04-25T18:25:42.069Z,1.50
2023-04-25T18:28:09.233Z,0.90
2023-04-25T18:30:38.094Z,1.40
2023-04-25T18:33:05.143Z,0.80
2023-04-25T18:35:32.090Z,0.80
2023-04-25T18:37:59.222Z,0.80
2023-04-25T18:40:27.537Z,1.00
2023-04-25T18:42:59.064Z,1.00
2023-04-25T18:45:27.555Z,0.90
2023-04-25T18:47:55.690Z,0.90
2023-04-25T18:50:26.401Z,0.60
2023-04-25T18:52:53.409Z,0.80
2023-04-25T18:55:21.228Z,0.50
2023-04-25T18:57:48.437Z,0.60
2023-04-25T19:00:17.441Z,0.60
2023-04-25T19:02:44.671Z,0.80
2023-04-25T19:05:11.673Z,0.50
2023-04-25T19:07:38.811Z,0.70
2023-04-25T19:10:06.466Z,0.70
2023-04-25T19:12:33.722Z,0.40
2023-04-25T19:15:00.769Z,0.40
2023-04-25T19:17:30.236Z,0.60
2023-04-25T19:19:59.564Z,0.40
2023-04-25T19:22:28.798Z,0.40
2023-04-25T19:25:09.094Z,0.50
2023-04-25T19:27:37.189Z,0.60
2023-04-25T19:30:08.179Z,0.30
2023-04-25T19:32:35.690Z,0.60
2023-04-25T19:35:04.940Z,0.60
2023-04-25T19:37:32.315Z,0.40
2023-04-25T19:39:59.283Z,0.60
2023-04-25T19:42:28.639Z,0.50
2023-04-25T19:44:55.639Z,0.40
2023-04-25T19:47:22.752Z,0.50
2023-04-25T19:49:50.362Z,0.60
2023-04-25T19:52:17.520Z,0.90
2023-04-25T19:54:45.683Z,0.40
2023-04-25T19:57:13.582Z,0.60
2023-04-25T19:59:40.698Z,0.50
2023-04-25T20:02:10.614Z,0.50
2023-04-25T20:04:38.704Z,0.80
2023-04-25T20:07:05.661Z,0.60
2023-04-25T20:09:32.510Z,0.60
2023-04-25T20:11:59.510Z,0.30
2023-04-25T20:14:26.415Z,0.70
2023-04-25T20:16:54.074Z,0.40
2023-04-25T20:19:21.039Z,0.70
2023-04-25T20:21:47.912Z,0.60
2023-04-25T20:24:14.874Z,0.50
2023-04-25T20:26:41.787Z,0.60
2023-04-25T20:29:09.959Z,0.40
2023-04-25T20:31:37.161Z,0.50
2023-04-25T20:34:04.509Z,0.60
2023-04-25T20:36:32.302Z,1.00
2023-04-25T20:38:59.162Z,0.80
2023-04-25T20:41:26.126Z,0.60
2023-04-25T20:43:53.493Z,0.70
2023-04-25T20:46:20.717Z,0.90
2023-04-25T20:48:53.386Z,0.90
2023-04-25T20:51:21.590Z,0.60
2023-04-25T20:53:48.922Z,0.80
2023-04-25T20:56:16.882Z,0.70
2023-04-25T20:58:43.765Z,0.50
2023-04-25T21:01:11.457Z,0.80
2023-04-25T21:03:38.774Z,0.70
2023-04-25T21:06:08.035Z,0.70
2023-04-25T21:08:35.145Z,0.80
2023-04-25T21:11:02.110Z,0.60
2023-04-25T21:13:29.139Z,0.60
2023-04-25T21:15:56.761Z,0.90
2023-04-25T21:18:23.758Z,0.80
2023-04-25T21:20:50.587Z,1.00
2023-04-25T21:23:18.163Z,0.90
2023-04-25T21:25:45.165Z,0.90
2023-04-25T21:28:12.194Z,0.90
2023-04-25T21:30:39.142Z,1.00
2023-04-25T21:33:06.723Z,1.10
2023-04-25T21:35:33.784Z,0.80
2023-04-25T21:38:01.091Z,0.50
2023-04-25T21:40:27.987Z,0.50
2023-04-25T21:42:54.895Z,0.70
2023-04-25T21:45:21.894Z,0.50
2023-04-25T21:47:48.959Z,0.50
2023-04-25T21:50:17.646Z,0.60
2023-04-25T21:52:44.657Z,0.50
2023-04-25T21:55:11.923Z,0.40
2023-04-25T21:57:38.796Z,0.40
2023-04-25T22:00:13.749Z,0.50
2023-04-25T22:02:40.846Z,0.60
2023-04-25T22:05:07.850Z,0.40
2023-04-25T22:07:34.794Z,0.80
2023-04-25T22:10:01.805Z,0.50
2023-04-25T22:12:28.694Z,0.60
2023-04-25T22:14:55.544Z,0.60
2023-04-25T22:17:25.916Z,0.60
2023-04-25T22:19:52.863Z,0.50
2023-04-25T22:22:22.032Z,0.30
2023-04-25T22:24:51.867Z,0.30
2023-04-25T22:27:23.630Z,0.40
2023-04-25T22:29:50.576Z,0.40
2023-04-25T22:32:17.662Z,0.30
2023-04-25T22:34:45.647Z,0.30
2023-04-25T22:37:12.534Z,0.80
2023-04-25T22:39:39.441Z,0.10
2023-04-25T22:42:06.588Z,0.30
2023-04-25T22:44:33.800Z,0.10
2023-04-25T22:47:05.582Z,0.20
2023-04-25T22:49:32.496Z,0.10
2023-04-25T22:51:59.355Z,0.20
2023-04-25T22:54:26.345Z,0.30
2023-04-25T22:56:53.221Z,0.10
2023-04-25T22:59:20.884Z,0.10
2023-04-25T23:01:50.078Z,0.10
2023-04-25T23:04:19.043Z,0.10
2023-04-25T23:06:46.465Z,0.10
2023-04-25T23:09:13.746Z,0.30
2023-04-25T23:11:43.851Z,0.10
2023-04-25T23:14:10.807Z,0.50
2023-04-25T23:16:40.906Z,0.40
2023-04-25T23:19:08.134Z,0.50
2023-04-25T23:21:35.021Z,0.10
2023-04-25T23:24:01.944Z,0.10
2023-04-25T23:26:28.967Z,0.20
2023-04-25T23:28:55.852Z,0.20
2023-04-25T23:31:22.811Z,0.20
2023-04-25T23:33:50.059Z,0.10
2023-04-25T23:36:21.459Z,0.10
2023-04-25T23:38:48.677Z,0.10
2023-04-25T23:41:15.662Z,0.20
2023-04-25T23:43:42.534Z,0.10
2023-04-25T23:46:09.702Z,0.10
2023-04-25T23:48:36.842Z,0.20
2023-04-25T23:51:03.773Z,0.00
2023-04-25T23:53:31.114Z,0.10
2023-04-25T23:55:58.030Z,0.10
2023-04-25T23:58:24.925Z,0.00
